createdAt,value
2018-02-09T00:02:12.483Z,23.60
2018-02-09T00:04:52.895Z,24.07
2018-02-09T00:07:34.418Z,24.43
2018-02-09T00:10:16.844Z,25.87
2018-02-09T00:12:57.360Z,26.37
2018-02-09T00:15:35.854Z,23.70
2018-02-09T00:18:14.231Z,27.97
2018-02-09T00:20:53.780Z,23.77
2018-02-09T00:23:32.403Z,23.13
2018-02-09T00:26:11.910Z,24.70
2018-02-09T00:28:51.301Z,25.60
2018-02-09T00:31:30.737Z,28.63
2018-02-09T00:34:10.076Z,26.60
2018-02-09T00:36:49.431Z,25.20
2018-02-09T00:39:31.098Z,28.27
2018-02-09T00:42:09.549Z,27.97
2018-02-09T00:44:50.175Z,31.87
2018-02-09T00:47:30.697Z,29.80
2018-02-09T00:50:10.237Z,32.13
2018-02-09T00:52:48.671Z,33.07
2018-02-09T00:55:28.401Z,29.90
2018-02-09T00:58:07.976Z,26.10
2018-02-09T01:00:47.452Z,27.20
2018-02-09T01:03:26.857Z,28.07
2018-02-09T01:06:05.463Z,24.93
2018-02-09T01:08:45.257Z,27.90
2018-02-09T01:11:25.066Z,25.30
2018-02-09T01:14:04.461Z,28.30
2018-02-09T01:16:43.911Z,28.90
2018-02-09T01:19:23.334Z,27.90
2018-02-09T01:22:01.871Z,30.23
2018-02-09T01:24:41.196Z,25.00
2018-02-09T01:27:19.665Z,23.97
2018-02-09T01:30:00.357Z,25.20
2018-02-09T01:32:40.937Z,24.50
2018-02-09T01:35:20.369Z,28.47
2018-02-09T01:37:59.935Z,28.13
2018-02-09T01:40:42.403Z,27.13
2018-02-09T01:43:21.868Z,26.57
2018-02-09T01:46:01.336Z,25.10
2018-02-09T01:48:40.574Z,26.97
2018-02-09T01:51:19.959Z,26.10
2018-02-09T01:54:00.564Z,29.03
2018-02-09T01:56:39.070Z,28.43
2018-02-09T01:59:17.489Z,27.93
2018-02-09T02:01:57.048Z,29.87
2018-02-09T02:04:36.562Z,26.97
2018-02-09T02:07:17.348Z,29.97
2018-02-09T02:10:00.005Z,29.63
2018-02-09T02:12:41.860Z,28.80
2018-02-09T02:15:22.537Z,27.27
2018-02-09T02:18:02.025Z,31.17
2018-02-09T02:20:40.666Z,28.03
2018-02-09T02:23:19.249Z,31.70
2018-02-09T02:25:58.781Z,30.60
2018-02-09T02:28:37.371Z,32.27
2018-02-09T02:31:20.843Z,36.60
2018-02-09T02:34:00.256Z,29.43
2018-02-09T02:36:40.802Z,32.33
2018-02-09T02:39:20.336Z,33.87
2018-02-09T02:41:59.973Z,33.20
2018-02-09T02:44:39.390Z,34.43
2018-02-09T02:47:17.913Z,39.60
2018-02-09T02:49:57.269Z,40.00
2018-02-09T02:52:35.579Z,37.00
2018-02-09T02:55:14.878Z,31.10
2018-02-09T02:57:54.451Z,36.00
2018-02-09T03:00:33.949Z,32.40
2018-02-09T03:03:13.476Z,38.13
2018-02-09T03:05:51.875Z,34.90
2018-02-09T03:08:33.327Z,31.80
2018-02-09T03:11:12.635Z,32.30
2018-02-09T03:13:54.731Z,32.90
2018-02-09T03:16:35.503Z,35.67
2018-02-09T03:19:13.991Z,37.60
2018-02-09T03:21:52.520Z,37.70
2018-02-09T03:24:32.152Z,34.63
2018-02-09T03:27:10.600Z,28.73
2018-02-09T03:29:49.997Z,34.83
2018-02-09T03:32:29.538Z,35.03
2018-02-09T03:35:08.577Z,30.90
2018-02-09T03:37:48.442Z,32.07
2018-02-09T03:40:27.090Z,32.53
2018-02-09T03:43:05.566Z,34.87
2018-02-09T03:45:45.205Z,33.20
2018-02-09T03:48:24.702Z,34.07
2018-02-09T03:51:03.074Z,34.27
2018-02-09T03:53:42.661Z,33.37
2018-02-09T03:56:20.934Z,37.73
2018-02-09T03:59:01.585Z,33.87
2018-02-09T04:01:41.204Z,31.17
2018-02-09T04:04:19.462Z,36.70
2018-02-09T04:06:59.070Z,34.57
2018-02-09T04:09:39.513Z,31.13
2018-02-09T04:12:19.889Z,32.77
2018-02-09T04:15:01.395Z,31.57
2018-02-09T04:17:40.969Z,36.40
2018-02-09T04:20:20.361Z,29.33
2018-02-09T04:22:59.796Z,32.60
2018-02-09T04:25:39.342Z,30.40
2018-02-09T04:28:18.932Z,33.30
2018-02-09T04:30:57.294Z,31.60
2018-02-09T04:33:37.950Z,30.10
2018-02-09T04:36:16.671Z,27.60
2018-02-09T04:38:57.095Z,28.70
2018-02-09T04:41:35.584Z,28.10
2018-02-09T04:44:15.036Z,28.57
2018-02-09T04:46:53.307Z,28.37
2018-02-09T04:49:33.121Z,29.20
2018-02-09T04:52:11.573Z,28.80
2018-02-09T04:54:50.232Z,29.43
2018-02-09T04:57:29.764Z,24.73
2018-02-09T05:00:09.431Z,25.67
2018-02-09T05:02:47.765Z,28.00
2018-02-09T05:05:27.172Z,26.63
2018-02-09T05:08:07.679Z,24.83
2018-02-09T05:10:48.164Z,26.63
2018-02-09T05:13:27.682Z,24.90
2018-02-09T05:16:06.045Z,24.47
2018-02-09T05:18:44.845Z,22.67
2018-02-09T05:21:24.313Z,19.97
2018-02-09T05:24:03.969Z,25.07
2018-02-09T05:26:43.564Z,22.67
2018-02-09T05:29:23.280Z,20.87
2018-02-09T05:32:02.894Z,32.27
2018-02-09T05:34:42.343Z,25.10
2018-02-09T05:37:20.952Z,21.40
2018-02-09T05:40:00.553Z,22.23
2018-02-09T05:42:39.011Z,21.70
2018-02-09T05:45:17.695Z,18.83
2018-02-09T05:47:56.245Z,17.83
2018-02-09T05:50:35.776Z,12.83
2018-02-09T05:53:14.833Z,15.23
2018-02-09T05:55:54.882Z,13.23
2018-02-09T05:58:35.356Z,12.93
2018-02-09T06:01:16.903Z,10.23
2018-02-09T06:03:56.473Z,13.20
2018-02-09T06:06:37.986Z,12.60
2018-02-09T06:09:17.502Z,10.50
2018-02-09T06:11:57.913Z,10.67
2018-02-09T06:14:38.166Z,11.80
2018-02-09T06:17:16.713Z,11.40
2018-02-09T06:19:58.130Z,9.77
2018-02-09T06:22:37.643Z,9.80
2018-02-09T06:25:17.178Z,7.80
2018-02-09T06:27:56.645Z,10.53
2018-02-09T06:30:36.253Z,8.90
2018-02-09T06:33:15.822Z,6.13
2018-02-09T06:35:54.338Z,6.70
2018-02-09T06:38:33.903Z,6.83
2018-02-09T06:41:13.597Z,6.90
2018-02-09T06:43:52.106Z,5.20
2018-02-09T06:46:30.655Z,6.37
2018-02-09T06:49:10.200Z,6.50
2018-02-09T06:51:48.782Z,6.73
2018-02-09T06:54:28.282Z,5.40
2018-02-09T06:57:06.670Z,4.73
2018-02-09T06:59:45.041Z,5.00
2018-02-09T07:02:24.526Z,6.13
2018-02-09T07:05:05.149Z,4.17
2018-02-09T07:07:44.751Z,3.47
2018-02-09T07:10:24.263Z,3.77
2018-02-09T07:13:05.540Z,3.07
2018-02-09T07:15:45.005Z,4.10
2018-02-09T07:18:23.501Z,3.67
2018-02-09T07:21:02.033Z,3.07
2018-02-09T07:23:41.590Z,3.50
2018-02-09T07:26:21.314Z,2.80
2018-02-09T07:28:59.616Z,3.30
2018-02-09T07:31:38.197Z,3.78
2018-02-09T07:34:17.563Z,2.58
2018-02-09T07:36:56.956Z,2.87
2018-02-09T07:39:36.495Z,3.17
2018-02-09T07:42:15.409Z,4.32
2018-02-09T07:44:54.523Z,12.13
2018-02-09T07:47:33.998Z,9.65
2018-02-09T07:50:14.392Z,6.05
2018-02-09T07:52:53.865Z,9.40
2018-02-09T07:55:33.407Z,13.00
2018-02-09T07:58:12.017Z,15.73
2018-02-09T08:00:51.601Z,7.70
2018-02-09T08:03:31.104Z,4.82
2018-02-09T08:06:10.727Z,7.15
2018-02-09T08:08:51.238Z,10.38
2018-02-09T08:11:32.786Z,9.68
2018-02-09T08:14:12.452Z,9.40
2018-02-09T08:16:52.056Z,9.65
2018-02-09T08:19:32.688Z,10.07
2018-02-09T08:22:11.199Z,6.28
2018-02-09T08:24:51.607Z,7.53
2018-02-09T08:27:31.107Z,5.50
2018-02-09T08:30:10.784Z,3.25
2018-02-09T08:32:49.096Z,4.30
2018-02-09T08:35:28.756Z,3.20
2018-02-09T08:38:11.026Z,4.93
2018-02-09T08:40:49.704Z,3.17
2018-02-09T08:43:29.163Z,3.37
2018-02-09T08:46:07.797Z,2.80
2018-02-09T08:48:47.304Z,2.75
2018-02-09T08:51:26.720Z,2.60
2018-02-09T08:54:05.207Z,2.47
2018-02-09T08:56:43.708Z,3.40
2018-02-09T08:59:23.167Z,3.47
2018-02-09T09:02:01.727Z,2.75
2018-02-09T09:04:41.070Z,2.58
2018-02-09T09:07:20.517Z,2.90
2018-02-09T09:09:59.044Z,5.90
2018-02-09T09:12:40.725Z,3.00
2018-02-09T09:15:23.196Z,3.90
2018-02-09T09:18:03.580Z,1.70
2018-02-09T09:20:43.091Z,3.27
2018-02-09T09:23:22.483Z,2.50
2018-02-09T09:26:01.856Z,1.80
2018-02-09T09:28:40.499Z,1.67
2018-02-09T09:31:19.983Z,1.80
2018-02-09T09:34:01.385Z,2.90
2018-02-09T09:36:43.951Z,3.15
2018-02-09T09:39:23.345Z,1.60
2018-02-09T09:42:04.800Z,2.00
2018-02-09T09:44:44.273Z,1.65
2018-02-09T09:47:23.663Z,1.90
2018-02-09T09:50:02.044Z,1.73
2018-02-09T09:52:40.548Z,1.87
2018-02-09T09:55:20.031Z,4.62
2018-02-09T09:57:58.570Z,2.00
2018-02-09T10:00:37.122Z,2.45
2018-02-09T10:03:15.719Z,1.83
2018-02-09T10:05:56.056Z,2.78
2018-02-09T10:08:36.509Z,2.65
2018-02-09T10:11:16.120Z,1.40
2018-02-09T10:13:57.624Z,2.10
2018-02-09T10:16:38.091Z,2.55
2018-02-09T10:19:17.665Z,2.58
2018-02-09T10:21:58.217Z,2.35
2018-02-09T10:24:38.625Z,2.15
2018-02-09T10:27:18.110Z,1.35
2018-02-09T10:29:57.462Z,2.53
2018-02-09T10:32:37.009Z,1.60
2018-02-09T10:35:16.521Z,1.80
2018-02-09T10:37:56.132Z,3.72
2018-02-09T10:40:35.554Z,4.12
2018-02-09T10:43:15.990Z,1.67
2018-02-09T10:45:56.462Z,2.37
2018-02-09T10:48:35.048Z,2.00
2018-02-09T10:51:14.583Z,1.98
2018-02-09T10:53:56.169Z,2.75
2018-02-09T10:56:35.495Z,4.70
2018-02-09T10:59:14.991Z,2.80
2018-02-09T11:01:53.481Z,4.60
2018-02-09T11:04:31.919Z,2.87
2018-02-09T11:07:12.344Z,5.30
2018-02-09T11:09:50.778Z,1.95
2018-02-09T11:12:30.328Z,6.68
2018-02-09T11:15:08.395Z,1.62
2018-02-09T11:17:47.788Z,1.80
2018-02-09T11:20:25.199Z,5.70
2018-02-09T11:23:03.559Z,3.60
2018-02-09T11:25:42.297Z,1.77
2018-02-09T11:28:20.689Z,4.35
2018-02-09T11:31:00.215Z,5.30
2018-02-09T11:33:38.635Z,4.57
2018-02-09T11:36:17.164Z,5.85
2018-02-09T11:38:55.876Z,4.00
2018-02-09T11:41:34.223Z,3.78
2018-02-09T11:44:12.659Z,3.12
2018-02-09T11:46:51.162Z,3.05
2018-02-09T11:49:29.659Z,4.03
2018-02-09T11:52:08.168Z,3.05
2018-02-09T11:54:46.703Z,4.12
2018-02-09T12:00:11.210Z,2.58
2018-02-09T12:02:49.900Z,4.20
2018-02-09T12:05:28.424Z,3.20
2018-02-09T12:08:07.176Z,3.87
2018-02-09T12:10:45.675Z,8.02
2018-02-09T12:13:24.268Z,4.05
2018-02-09T12:16:04.684Z,4.35
2018-02-09T12:18:46.071Z,2.47
2018-02-09T12:21:24.860Z,3.92
2018-02-09T12:24:03.403Z,2.85
2018-02-09T12:26:42.789Z,3.53
2018-02-09T12:29:21.272Z,2.87
2018-02-09T12:32:00.586Z,3.62
2018-02-09T12:34:39.020Z,5.37
2018-02-09T12:37:18.311Z,3.45
2018-02-09T12:39:56.827Z,3.70
2018-02-09T12:42:35.489Z,3.75
2018-02-09T12:45:14.094Z,2.85
2018-02-09T12:47:52.478Z,4.12
2018-02-09T12:50:31.121Z,3.37
2018-02-09T12:53:10.470Z,4.30
2018-02-09T12:55:55.656Z,3.95
2018-02-09T12:58:34.576Z,5.78
2018-02-09T13:01:14.126Z,9.75
2018-02-09T13:03:52.539Z,8.93
2018-02-09T13:06:31.195Z,7.15
2018-02-09T13:09:10.621Z,7.15
2018-02-09T13:11:49.015Z,3.20
2018-02-09T13:14:39.664Z,4.05
2018-02-09T13:17:19.194Z,5.93
2018-02-09T13:20:00.846Z,4.75
2018-02-09T13:22:52.440Z,6.00
2018-02-09T13:25:32.124Z,12.13
2018-02-09T13:28:11.884Z,8.18
2018-02-09T13:30:52.801Z,6.28
2018-02-09T13:33:38.968Z,9.02
2018-02-09T13:36:20.560Z,4.45
2018-02-09T13:38:59.030Z,6.53
2018-02-09T13:41:38.538Z,6.12
2018-02-09T13:44:17.092Z,9.02
2018-02-09T13:46:55.566Z,7.15
2018-02-09T13:49:35.949Z,9.98
2018-02-09T13:52:14.248Z,5.28
2018-02-09T13:54:52.635Z,5.28
2018-02-09T13:57:32.318Z,11.25
2018-02-09T14:00:10.773Z,8.70
2018-02-09T14:02:51.334Z,12.35
2018-02-09T14:05:29.910Z,11.12
2018-02-09T14:08:08.275Z,13.05
2018-02-09T14:10:47.783Z,65.03
2018-02-09T14:13:26.081Z,50.97
2018-02-09T14:16:04.497Z,32.30
2018-02-09T14:18:43.946Z,14.45
2018-02-09T14:21:22.449Z,9.82
2018-02-09T14:24:01.055Z,9.32
2018-02-09T14:26:40.492Z,6.05
2018-02-09T14:29:19.980Z,5.95
2018-02-09T14:32:00.626Z,12.75
2018-02-09T14:34:39.089Z,8.77
2018-02-09T14:37:17.479Z,4.78
2018-02-09T14:39:57.030Z,10.43
2018-02-09T14:42:36.711Z,7.87
2018-02-09T14:45:17.336Z,7.55
2018-02-09T14:47:56.870Z,8.93
2018-02-09T14:50:36.193Z,7.90
2018-02-09T14:53:16.726Z,9.88
2018-02-09T14:55:56.596Z,12.27
2018-02-09T14:58:36.166Z,9.48
2018-02-09T15:01:16.600Z,9.88
2018-02-09T15:03:56.195Z,8.10
2018-02-09T15:06:34.605Z,9.60
2018-02-09T15:09:13.144Z,5.68
2018-02-09T15:11:53.721Z,8.30
2018-02-09T15:14:32.113Z,7.32
2018-02-09T15:17:10.588Z,8.15
2018-02-09T15:19:49.018Z,9.30
2018-02-09T15:22:28.622Z,9.13
2018-02-09T15:25:06.258Z,7.53
2018-02-09T15:27:46.928Z,7.40
2018-02-09T15:30:29.709Z,4.85
2018-02-09T15:33:10.817Z,8.27
2018-02-09T15:35:49.315Z,9.82
2018-02-09T15:38:27.833Z,12.85
2018-02-09T15:41:07.360Z,11.73
2018-02-09T15:43:48.760Z,11.82
2018-02-09T15:46:28.280Z,21.62
2018-02-09T15:49:07.854Z,14.85
2018-02-09T15:51:47.374Z,13.10
2018-02-09T15:54:25.937Z,27.83
2018-02-09T15:57:04.548Z,21.58
2018-02-09T15:59:42.925Z,28.08
2018-02-09T16:02:21.392Z,25.30
2018-02-09T16:05:00.070Z,19.20
2018-02-09T16:07:38.634Z,19.55
2018-02-09T16:10:17.332Z,13.77
2018-02-09T16:12:55.736Z,19.75
2018-02-09T16:15:34.435Z,22.58
2018-02-09T16:18:13.035Z,25.02
2018-02-09T16:20:52.394Z,30.62
2018-02-09T16:23:31.005Z,106.30
2018-02-09T16:26:10.626Z,27.02
2018-02-09T16:28:49.128Z,69.53
2018-02-09T16:31:27.586Z,13.13
2018-02-09T16:34:05.836Z,21.87
2018-02-09T16:36:47.269Z,23.15
2018-02-09T16:39:25.721Z,25.65
2018-02-09T16:42:04.303Z,10.82
2018-02-09T16:44:44.841Z,28.67
2018-02-09T16:47:24.652Z,14.80
2018-02-09T16:50:03.640Z,16.42
2018-02-09T16:52:43.185Z,28.55
2018-02-09T16:55:22.703Z,44.95
2018-02-09T16:58:01.280Z,40.72
2018-02-09T17:00:40.674Z,25.48
2018-02-09T17:03:19.112Z,17.90
2018-02-09T17:05:57.809Z,13.90
2018-02-09T17:08:36.462Z,12.53
2018-02-09T17:11:14.847Z,6.73
2018-02-09T17:13:53.445Z,7.40
2018-02-09T17:16:31.833Z,7.27
2018-02-09T17:19:11.711Z,8.37
2018-02-09T17:21:49.805Z,7.20
2018-02-09T17:24:28.235Z,13.13
2018-02-09T17:27:05.726Z,6.93
2018-02-09T17:32:43.460Z,11.93
2018-02-09T17:35:21.066Z,10.67
2018-02-09T17:37:59.618Z,9.70
2018-02-09T17:40:38.026Z,7.70
2018-02-09T17:43:16.355Z,16.83
2018-02-09T17:45:54.935Z,13.10
2018-02-09T17:48:35.415Z,10.93
2018-02-09T17:51:14.156Z,8.03
2018-02-09T17:53:52.413Z,9.73
2018-02-09T17:56:32.103Z,7.67
2018-02-09T17:59:10.575Z,7.30
2018-02-09T18:01:50.083Z,6.70
2018-02-09T18:04:28.560Z,13.13
2018-02-09T18:07:09.424Z,8.63
2018-02-09T18:09:47.578Z,9.10
2018-02-09T18:12:26.233Z,5.87
2018-02-09T18:15:05.668Z,8.40
2018-02-09T18:17:44.068Z,5.00
2018-02-09T18:20:22.500Z,5.07
2018-02-09T18:23:02.050Z,5.07
2018-02-09T18:25:40.548Z,4.50
2018-02-09T18:28:19.066Z,3.70
2018-02-09T18:30:58.483Z,6.47
2018-02-09T18:33:36.916Z,9.03
2018-02-09T18:36:16.407Z,8.60
2018-02-09T18:38:57.547Z,9.03
2018-02-09T18:41:37.449Z,9.20
2018-02-09T18:44:16.007Z,7.57
2018-02-09T18:46:55.346Z,6.10
2018-02-09T18:49:33.764Z,7.40
2018-02-09T18:52:14.216Z,5.43
2018-02-09T18:54:54.039Z,11.50
2018-02-09T18:57:34.066Z,5.30
2018-02-09T19:00:12.721Z,7.83
2018-02-09T19:02:51.114Z,7.17
2018-02-09T19:05:30.566Z,7.77
2018-02-09T19:08:09.097Z,6.70
2018-02-09T19:10:48.633Z,7.77
2018-02-09T19:13:30.300Z,5.20
2018-02-09T19:16:10.891Z,7.63
2018-02-09T19:18:51.355Z,3.50
2018-02-09T19:21:32.896Z,5.53
2018-02-09T19:24:11.652Z,7.20
2018-02-09T19:26:49.841Z,9.20
2018-02-09T19:29:28.831Z,5.00
2018-02-09T19:32:09.407Z,4.57
2018-02-09T19:34:47.867Z,5.30
2018-02-09T19:37:26.262Z,6.73
2018-02-09T19:40:05.791Z,7.33
2018-02-09T19:42:45.228Z,6.40
2018-02-09T19:45:26.414Z,7.50
2018-02-09T19:48:05.436Z,7.77
2018-02-09T19:50:44.024Z,6.10
2018-02-09T19:53:22.724Z,6.30
2018-02-09T19:56:03.235Z,4.77
2018-02-09T19:58:42.797Z,5.30
2018-02-09T20:01:24.299Z,13.20
2018-02-09T20:04:02.707Z,6.07
2018-02-09T20:06:41.306Z,10.33
2018-02-09T20:09:19.881Z,8.70
2018-02-09T20:11:58.473Z,6.70
2018-02-09T20:14:39.032Z,6.80
2018-02-09T20:17:17.416Z,9.03
2018-02-09T20:19:55.970Z,6.63
2018-02-09T20:22:34.885Z,6.80
2018-02-09T20:25:13.293Z,5.03
2018-02-09T20:27:51.889Z,5.73
2018-02-09T20:30:30.656Z,9.20
2018-02-09T20:33:09.761Z,5.57
2018-02-09T20:35:49.648Z,3.30
2018-02-09T20:38:27.316Z,5.63
2018-02-09T20:41:05.756Z,7.30
2018-02-09T20:43:45.543Z,3.47
2018-02-09T20:46:26.306Z,8.37
2018-02-09T20:49:05.925Z,5.60
2018-02-09T20:51:46.517Z,2.37
2018-02-09T20:54:25.379Z,8.97
2018-02-09T20:57:03.978Z,7.03
2018-02-09T20:59:42.621Z,4.13
2018-02-09T21:02:21.152Z,4.20
2018-02-09T21:04:59.734Z,9.40
2018-02-09T21:07:38.142Z,6.80
2018-02-09T21:10:16.685Z,5.87
2018-02-09T21:12:55.234Z,6.00
2018-02-09T21:15:34.072Z,4.33
2018-02-09T21:18:13.676Z,4.87
2018-02-09T21:20:52.823Z,4.47
2018-02-09T21:23:31.502Z,5.87
2018-02-09T21:26:10.043Z,8.10
2018-02-09T21:28:49.191Z,3.27
2018-02-09T21:31:28.128Z,8.40
2018-02-09T21:34:07.606Z,9.40
2018-02-09T21:36:45.102Z,5.27
2018-02-09T21:39:24.751Z,6.63
2018-02-09T21:42:04.133Z,10.67
2018-02-09T21:44:42.762Z,8.10
2018-02-09T21:47:22.282Z,6.03
2018-02-09T21:50:01.849Z,10.03
2018-02-09T21:52:40.362Z,5.00
2018-02-09T21:55:18.849Z,4.00
2018-02-09T21:57:58.360Z,3.53
2018-02-09T22:00:36.702Z,7.87
2018-02-09T22:03:15.128Z,4.00
2018-02-09T22:05:53.686Z,6.50
2018-02-09T22:08:32.407Z,7.10
2018-02-09T22:11:10.903Z,5.00
2018-02-09T22:13:49.299Z,8.20
2018-02-09T22:16:27.686Z,4.10
2018-02-09T22:19:07.295Z,8.57
2018-02-09T22:21:45.976Z,8.33
2018-02-09T22:24:24.493Z,7.43
2018-02-09T22:27:03.974Z,7.23
2018-02-09T22:29:42.686Z,5.07
2018-02-09T22:32:21.284Z,3.43
2018-02-09T22:34:58.755Z,8.90
2018-02-09T22:37:38.327Z,4.50
2018-02-09T22:40:16.836Z,7.13
2018-02-09T22:42:56.332Z,9.90
2018-02-09T22:45:37.935Z,7.13
2018-02-09T22:48:16.412Z,4.33
2018-02-09T22:50:54.891Z,4.37
2018-02-09T22:53:32.416Z,7.20
2018-02-09T22:56:10.834Z,5.90
2018-02-09T22:58:49.245Z,4.57
2018-02-09T23:01:27.850Z,6.13
2018-02-09T23:04:06.314Z,4.03
2018-02-09T23:06:44.889Z,4.77
2018-02-09T23:09:23.367Z,5.00
2018-02-09T23:12:01.770Z,4.77
2018-02-09T23:14:40.232Z,6.20
2018-02-09T23:17:18.810Z,7.00
2018-02-09T23:19:57.170Z,6.30
2018-02-09T23:22:34.538Z,11.60
2018-02-09T23:25:13.058Z,8.43
2018-02-09T23:27:51.597Z,4.90
2018-02-09T23:30:30.207Z,7.17
2018-02-09T23:33:08.707Z,4.07
2018-02-09T23:35:47.317Z,9.57
2018-02-09T23:38:24.869Z,3.17
2018-02-09T23:41:03.481Z,3.50
2018-02-09T23:43:41.902Z,3.53
2018-02-09T23:46:21.735Z,5.00
2018-02-09T23:49:00.103Z,4.43
2018-02-09T23:51:38.643Z,8.80
2018-02-09T23:54:17.923Z,4.67
2018-02-09T23:56:57.549Z,5.50
2018-02-09T23:59:36.150Z,6.27
